createdAt,value
2022-08-12T00:02:25.322Z,2.25
2022-08-12T00:06:04.343Z,2.03
2022-08-12T00:09:26.556Z,2.13
2022-08-12T00:12:47.775Z,2.03
2022-08-12T00:16:08.585Z,1.80
2022-08-12T00:19:29.499Z,1.80
2022-08-12T00:22:59.456Z,1.85
2022-08-12T00:26:24.379Z,2.47
2022-08-12T00:29:47.992Z,2.00
2022-08-12T00:33:09.204Z,2.20
2022-08-12T00:36:35.026Z,1.60
2022-08-12T00:39:57.490Z,2.00
2022-08-12T00:42:59.874Z,2.00
2022-08-12T00:46:20.518Z,2.28
2022-08-12T00:49:23.819Z,1.67
2022-08-12T00:52:25.965Z,2.30
2022-08-12T00:55:28.206Z,1.88
2022-08-12T00:58:31.025Z,1.83
2022-08-12T01:02:01.114Z,1.80
2022-08-12T01:05:19.182Z,1.80
2022-08-12T01:08:40.019Z,2.00
2022-08-12T01:11:42.150Z,2.00
2022-08-12T01:14:46.976Z,2.10
2022-08-12T01:17:49.112Z,2.38
2022-08-12T01:21:09.263Z,2.20
2022-08-12T01:24:38.996Z,2.20
2022-08-12T01:27:41.240Z,2.20
2022-08-12T01:30:43.778Z,2.17
2022-08-12T01:34:28.477Z,2.20
2022-08-12T01:37:31.113Z,2.28
2022-08-12T01:40:40.444Z,2.42
2022-08-12T01:43:44.669Z,2.08
2022-08-12T01:47:11.337Z,2.20
2022-08-12T01:50:16.776Z,1.90
2022-08-12T01:53:20.972Z,2.30
2022-08-12T01:56:25.131Z,2.60
2022-08-12T02:00:01.940Z,2.15
2022-08-12T02:03:19.725Z,1.20
2022-08-12T02:07:22.046Z,1.30
2022-08-12T02:11:19.028Z,0.90
2022-08-12T02:14:56.876Z,1.10
2022-08-12T02:18:46.850Z,1.00
2022-08-12T02:22:38.512Z,1.05
2022-08-12T02:25:44.638Z,1.10
2022-08-12T02:28:46.865Z,1.10
2022-08-12T02:31:48.949Z,1.10
2022-08-12T02:34:52.758Z,1.10
2022-08-12T02:37:58.076Z,1.50
2022-08-12T02:41:03.703Z,1.23
2022-08-12T02:44:09.818Z,1.20
2022-08-12T02:47:55.715Z,1.27
2022-08-12T02:50:39.695Z,1.40
2022-08-12T02:53:41.951Z,1.30
2022-08-12T02:56:48.039Z,1.50
2022-08-12T02:59:53.200Z,1.60
2022-08-12T03:02:55.368Z,1.55
2022-08-12T03:06:07.197Z,1.70
2022-08-12T03:09:14.622Z,1.50
2022-08-12T03:12:20.211Z,1.50
2022-08-12T03:15:23.982Z,1.60
2022-08-12T03:18:31.358Z,1.70
2022-08-12T03:21:55.334Z,1.90
2022-08-12T03:25:04.862Z,1.95
2022-08-12T03:28:11.436Z,2.03
2022-08-12T03:31:29.832Z,1.80
2022-08-12T03:34:35.621Z,1.60
2022-08-12T03:37:38.184Z,2.00
2022-08-12T03:41:15.646Z,2.00
2022-08-12T03:45:19.180Z,2.20
2022-08-12T03:48:39.871Z,2.20
2022-08-12T03:52:00.825Z,2.15
2022-08-12T03:55:21.871Z,2.00
2022-08-12T03:58:43.302Z,2.20
2022-08-12T04:01:52.548Z,2.10
2022-08-12T04:04:54.731Z,2.17
2022-08-12T04:07:58.264Z,1.98
2022-08-12T04:11:19.150Z,2.10
2022-08-12T04:14:21.427Z,2.30
2022-08-12T04:17:24.723Z,2.38
2022-08-12T04:20:26.862Z,2.20
2022-08-12T04:23:31.402Z,2.00
2022-08-12T04:26:35.771Z,2.05
2022-08-12T04:30:21.401Z,1.85
2022-08-12T04:33:01.324Z,2.00
2022-08-12T04:36:03.777Z,1.92
2022-08-12T04:39:07.571Z,1.90
2022-08-12T04:42:09.831Z,2.30
2022-08-12T04:45:11.933Z,2.15
2022-08-12T04:48:21.474Z,2.10
2022-08-12T04:51:24.077Z,2.25
2022-08-12T04:54:27.096Z,2.05
2022-08-12T04:57:29.206Z,1.92
2022-08-12T05:00:31.390Z,2.20
2022-08-12T05:03:46.616Z,2.10
2022-08-12T05:06:50.689Z,2.20
2022-08-12T05:09:59.804Z,1.90
2022-08-12T05:13:11.438Z,2.13
2022-08-12T05:16:13.570Z,2.38
2022-08-12T05:19:18.646Z,2.10
2022-08-12T05:22:28.621Z,1.88
2022-08-12T05:25:30.796Z,2.20
2022-08-12T05:28:33.159Z,2.20
2022-08-12T05:31:42.614Z,2.67
2022-08-12T05:34:50.670Z,2.20
2022-08-12T05:38:12.721Z,2.30
2022-08-12T05:41:20.913Z,1.90
2022-08-12T05:44:23.087Z,2.20
2022-08-12T05:47:52.733Z,1.88
2022-08-12T05:50:47.303Z,2.35
2022-08-12T05:53:49.426Z,2.10
2022-08-12T05:56:51.986Z,2.35
2022-08-12T05:59:55.162Z,2.15
2022-08-12T06:03:03.585Z,2.22
2022-08-12T06:06:07.176Z,2.17
2022-08-12T06:09:13.234Z,2.03
2022-08-12T06:12:23.455Z,2.20
2022-08-12T06:15:25.585Z,2.22
2022-08-12T06:18:29.878Z,2.20
2022-08-12T06:21:33.319Z,1.98
2022-08-12T06:24:35.400Z,1.75
2022-08-12T06:28:06.879Z,1.70
2022-08-12T06:31:26.265Z,1.95
2022-08-12T06:35:23.577Z,2.25
2022-08-12T06:37:57.062Z,2.28
2022-08-12T06:41:19.163Z,2.20
2022-08-12T06:44:21.258Z,2.35
2022-08-12T06:47:23.343Z,2.35
2022-08-12T06:50:26.811Z,2.20
2022-08-12T06:53:32.857Z,2.50
2022-08-12T06:57:04.797Z,2.30
2022-08-12T06:59:57.127Z,2.33
2022-08-12T07:02:59.569Z,2.30
2022-08-12T07:06:18.835Z,2.00
2022-08-12T07:10:01.327Z,1.92
2022-08-12T07:12:43.608Z,1.98
2022-08-12T07:15:46.026Z,1.90
2022-08-12T07:18:50.358Z,2.00
2022-08-12T07:21:59.714Z,2.25
2022-08-12T07:25:23.333Z,2.65
2022-08-12T07:28:28.196Z,2.20
2022-08-12T07:31:31.049Z,2.25
2022-08-12T07:34:33.135Z,1.90
2022-08-12T07:37:41.933Z,2.20
2022-08-12T07:40:44.031Z,2.00
2022-08-12T07:43:50.755Z,2.95
2022-08-12T07:46:53.103Z,2.50
2022-08-12T07:50:04.589Z,2.10
2022-08-12T07:53:08.146Z,2.10
2022-08-12T07:56:10.691Z,2.30
2022-08-12T07:59:12.931Z,2.28
2022-08-12T08:02:14.994Z,2.20
2022-08-12T08:05:19.506Z,2.55
2022-08-12T08:08:24.070Z,3.00
2022-08-12T08:11:45.261Z,2.65
2022-08-12T08:14:50.027Z,2.30
2022-08-12T08:18:09.771Z,2.40
2022-08-12T08:21:11.926Z,2.35
2022-08-12T08:24:16.829Z,2.28
2022-08-12T08:27:18.967Z,2.95
2022-08-12T08:30:21.125Z,2.67
2022-08-12T08:34:01.392Z,2.35
2022-08-12T08:36:46.770Z,2.47
2022-08-12T08:39:50.938Z,2.53
2022-08-12T08:42:53.062Z,2.47
2022-08-12T08:45:58.672Z,2.28
2022-08-12T08:49:01.478Z,2.53
2022-08-12T08:52:10.169Z,2.67
2022-08-12T08:55:20.865Z,2.30
2022-08-12T08:58:26.263Z,3.03
2022-08-12T09:01:37.241Z,2.35
2022-08-12T09:05:11.708Z,2.53
2022-08-12T09:08:14.307Z,2.50
2022-08-12T09:12:06.804Z,2.67
2022-08-12T09:15:00.164Z,2.33
2022-08-12T09:18:08.568Z,2.35
2022-08-12T09:21:12.106Z,2.17
2022-08-12T09:24:20.012Z,2.10
2022-08-12T09:27:25.784Z,2.38
2022-08-12T09:30:46.342Z,2.58
2022-08-12T09:34:27.410Z,3.17
2022-08-12T09:37:20.349Z,2.53
2022-08-12T09:40:57.167Z,2.30
2022-08-12T09:44:06.542Z,2.60
2022-08-12T09:47:29.671Z,2.55
2022-08-12T09:50:36.171Z,2.58
2022-08-12T09:53:39.770Z,2.28
2022-08-12T09:57:02.006Z,2.38
2022-08-12T10:00:12.897Z,2.38
2022-08-12T10:03:31.832Z,1.90
2022-08-12T10:06:36.575Z,2.03
2022-08-12T10:09:58.845Z,2.22
2022-08-12T10:13:34.048Z,2.50
2022-08-12T10:16:44.483Z,2.50
2022-08-12T10:19:52.063Z,2.58
2022-08-12T10:22:59.223Z,2.45
2022-08-12T10:26:37.747Z,2.80
2022-08-12T10:30:03.405Z,2.55
2022-08-12T10:33:18.041Z,2.67
2022-08-12T10:36:21.789Z,2.38
2022-08-12T10:40:01.090Z,2.80
2022-08-12T10:43:23.807Z,2.50
2022-08-12T10:46:31.296Z,3.72
2022-08-12T10:50:03.045Z,2.50
2022-08-12T10:52:57.000Z,2.60
2022-08-12T10:55:59.800Z,2.90
2022-08-12T10:59:05.610Z,2.85
2022-08-12T11:04:22.485Z,2.90
2022-08-12T11:07:06.267Z,2.60
2022-08-12T11:08:59.112Z,2.40
2022-08-12T11:12:56.078Z,2.70
2022-08-12T11:16:03.760Z,2.42
2022-08-12T11:18:56.853Z,2.50
2022-08-12T11:22:01.320Z,2.30
2022-08-12T11:25:10.558Z,2.40
2022-08-12T11:28:14.335Z,2.55
2022-08-12T11:31:16.773Z,2.28
2022-08-12T11:34:53.725Z,2.20
2022-08-12T11:37:58.209Z,2.38
2022-08-12T11:41:05.096Z,2.53
2022-08-12T11:44:35.630Z,2.10
2022-08-12T11:47:29.273Z,2.50
2022-08-12T11:50:32.850Z,2.33
2022-08-12T11:53:56.884Z,2.40
2022-08-12T11:57:02.400Z,2.80
2022-08-12T12:03:45.608Z,2.72
2022-08-12T12:06:49.818Z,2.38
2022-08-12T12:09:55.715Z,2.10
2022-08-12T12:12:57.951Z,2.38
2022-08-12T12:16:00.139Z,2.45
2022-08-12T12:19:02.510Z,2.08
2022-08-12T12:22:04.703Z,2.03
2022-08-12T12:25:12.753Z,1.85
2022-08-12T12:28:36.490Z,1.90
2022-08-12T12:32:09.914Z,2.30
2022-08-12T12:35:14.227Z,1.80
2022-08-12T12:38:25.305Z,2.00
2022-08-12T12:42:41.876Z,2.00
2022-08-12T12:44:53.785Z,1.95
2022-08-12T12:48:02.743Z,2.30
2022-08-12T12:51:22.144Z,1.90
2022-08-12T12:54:52.524Z,2.03
2022-08-12T12:58:00.780Z,1.85
2022-08-12T13:01:04.858Z,1.80
2022-08-12T13:04:27.122Z,1.80
2022-08-12T13:07:49.351Z,1.70
2022-08-12T13:10:52.528Z,1.90
2022-08-12T13:14:09.204Z,2.13
2022-08-12T13:17:16.671Z,1.90
2022-08-12T13:20:38.206Z,1.63
2022-08-12T13:23:51.717Z,1.85
2022-08-12T13:26:53.807Z,2.30
2022-08-12T13:30:03.661Z,2.10
2022-08-12T13:33:06.187Z,1.90
2022-08-12T13:36:21.027Z,1.83
2022-08-12T13:39:26.158Z,1.98
2022-08-12T13:42:29.622Z,2.10
2022-08-12T13:45:31.995Z,2.50
2022-08-12T13:48:34.276Z,2.25
2022-08-12T13:51:41.038Z,2.25
2022-08-12T13:54:43.566Z,2.15
2022-08-12T13:58:00.024Z,2.33
2022-08-12T14:01:05.958Z,2.10
2022-08-12T14:04:11.474Z,2.05
2022-08-12T14:07:14.303Z,2.10
2022-08-12T14:10:36.767Z,2.50
2022-08-12T14:14:05.731Z,2.10
2022-08-12T14:17:05.589Z,2.05
2022-08-12T14:20:15.157Z,2.15
2022-08-12T14:24:01.080Z,2.10
2022-08-12T14:26:41.606Z,2.03
2022-08-12T14:30:04.445Z,2.05
2022-08-12T14:33:10.854Z,2.17
2022-08-12T14:36:13.424Z,1.90
2022-08-12T14:39:17.538Z,1.80
2022-08-12T14:42:20.456Z,2.65
2022-08-12T14:45:22.826Z,1.80
2022-08-12T14:48:25.295Z,1.80
2022-08-12T14:52:44.057Z,1.80
2022-08-12T14:58:14.623Z,1.60
2022-08-12T15:01:35.958Z,1.70
2022-08-12T15:04:39.617Z,1.52
2022-08-12T15:07:54.819Z,1.70
2022-08-12T15:11:04.082Z,1.67
2022-08-12T15:14:06.288Z,1.85
2022-08-12T15:17:09.412Z,1.70
2022-08-12T15:20:32.551Z,1.52
2022-08-12T15:23:55.241Z,1.65
2022-08-12T15:26:57.649Z,3.35
2022-08-12T15:30:01.196Z,2.00
2022-08-12T15:33:12.339Z,1.60
2022-08-12T15:36:19.221Z,1.90
2022-08-12T15:39:22.114Z,1.60
2022-08-12T15:42:24.658Z,1.73
2022-08-12T15:45:33.677Z,1.52
2022-08-12T15:48:44.156Z,1.45
2022-08-12T15:51:58.112Z,1.50
2022-08-12T15:55:05.856Z,1.38
2022-08-12T15:58:16.767Z,1.30
2022-08-12T16:01:19.649Z,1.33
2022-08-12T16:04:22.035Z,1.50
2022-08-12T16:07:26.157Z,1.17
2022-08-12T16:10:32.554Z,1.40
2022-08-12T16:13:36.264Z,1.00
2022-08-12T16:16:38.536Z,1.17
2022-08-12T16:20:03.198Z,1.00
2022-08-12T16:23:26.729Z,1.02
2022-08-12T16:26:35.843Z,1.17
2022-08-12T16:29:53.212Z,1.10
2022-08-12T16:33:11.291Z,0.82
2022-08-12T16:36:18.862Z,0.90
2022-08-12T16:39:21.432Z,0.95
2022-08-12T16:42:27.813Z,0.88
2022-08-12T16:45:58.188Z,0.80
2022-08-12T16:48:55.075Z,0.90
2022-08-12T16:51:58.117Z,0.85
2022-08-12T16:55:00.572Z,0.90
2022-08-12T16:58:18.431Z,0.82
2022-08-12T17:01:34.997Z,0.80
2022-08-12T17:04:39.743Z,0.80
2022-08-12T17:07:45.391Z,0.80
2022-08-12T17:10:52.645Z,0.95
2022-08-12T17:13:55.619Z,0.60
2022-08-12T17:16:58.494Z,0.80
2022-08-12T17:20:29.333Z,0.70
2022-08-12T17:23:27.565Z,0.82
2022-08-12T17:26:53.157Z,0.77
2022-08-12T17:33:07.502Z,0.80
2022-08-12T17:36:10.757Z,0.70
2022-08-12T17:39:13.048Z,0.80
2022-08-12T17:42:32.638Z,0.80
2022-08-12T17:45:42.362Z,0.70
2022-08-12T17:48:55.330Z,0.60
2022-08-12T17:52:02.268Z,0.90
2022-08-12T17:55:43.574Z,0.80
2022-08-12T17:58:35.529Z,0.80
2022-08-12T18:01:43.346Z,0.70
2022-08-12T18:05:04.768Z,1.02
2022-08-12T18:08:12.656Z,2.20
2022-08-12T18:12:03.841Z,0.95
2022-08-12T18:15:01.620Z,0.70
2022-08-12T18:18:04.171Z,0.68
2022-08-12T18:21:08.607Z,0.80
2022-08-12T18:24:22.327Z,0.80
2022-08-12T18:27:44.999Z,0.70
2022-08-12T18:30:52.473Z,0.75
2022-08-12T18:34:03.027Z,0.80
2022-08-12T18:37:26.877Z,0.88
2022-08-12T18:40:46.277Z,0.98
2022-08-12T18:43:59.422Z,0.93
2022-08-12T18:47:02.599Z,0.80
2022-08-12T18:50:10.774Z,0.90
2022-08-12T18:54:05.658Z,0.70
2022-08-12T18:56:38.818Z,0.80
2022-08-12T19:00:01.237Z,0.80
2022-08-12T19:03:09.173Z,0.90
2022-08-12T19:06:35.969Z,0.90
2022-08-12T19:09:57.554Z,1.00
2022-08-12T19:13:24.249Z,1.00
2022-08-12T19:16:27.073Z,1.10
2022-08-12T19:19:30.195Z,1.10
2022-08-12T19:22:44.182Z,1.25
2022-08-12T19:26:03.213Z,1.13
2022-08-12T19:29:07.646Z,1.30
2022-08-12T19:32:12.708Z,1.10
2022-08-12T19:38:37.949Z,1.00
2022-08-12T19:42:00.707Z,1.08
2022-08-12T19:45:05.756Z,1.02
2022-08-12T19:48:17.323Z,0.90
2022-08-12T19:51:40.674Z,1.33
2022-08-12T19:54:44.041Z,1.08
2022-08-12T19:58:02.996Z,1.00
2022-08-12T20:01:11.337Z,0.90
2022-08-12T20:04:13.778Z,1.00
2022-08-12T20:07:23.180Z,1.05
2022-08-12T20:10:35.111Z,1.30
2022-08-12T20:13:38.126Z,1.42
2022-08-12T20:16:52.450Z,1.10
2022-08-12T20:20:17.018Z,1.05
2022-08-12T20:23:37.085Z,1.60
2022-08-12T20:26:51.950Z,1.40
2022-08-12T20:29:54.640Z,1.15
2022-08-12T20:33:01.348Z,1.10
2022-08-12T20:36:06.235Z,1.52
2022-08-12T20:39:37.338Z,1.10
2022-08-12T20:42:38.738Z,1.20
2022-08-12T20:45:50.662Z,1.10
2022-08-12T20:48:54.816Z,1.33
2022-08-12T20:52:01.643Z,1.40
2022-08-12T20:55:05.863Z,1.40
2022-08-12T20:58:19.712Z,1.42
2022-08-12T21:01:25.932Z,1.73
2022-08-12T21:04:50.804Z,2.00
2022-08-12T21:07:52.992Z,2.00
2022-08-12T21:10:58.969Z,2.10
2022-08-12T21:14:02.196Z,1.83
2022-08-12T21:17:05.243Z,1.88
2022-08-12T21:20:11.446Z,1.85
2022-08-12T21:23:21.290Z,1.67
2022-08-12T21:26:24.042Z,2.17
2022-08-12T21:29:39.927Z,2.00
2022-08-12T21:32:53.013Z,1.88
2022-08-12T21:35:55.311Z,1.90
2022-08-12T21:39:21.194Z,2.10
2022-08-12T21:42:27.899Z,2.00
2022-08-12T21:45:46.021Z,1.75
2022-08-12T21:48:57.517Z,1.73
2022-08-12T21:52:03.566Z,1.67
2022-08-12T21:55:18.035Z,1.65
2022-08-12T21:58:22.339Z,1.80
2022-08-12T22:01:25.227Z,1.90
2022-08-12T22:04:49.886Z,1.92
2022-08-12T22:07:55.510Z,1.75
2022-08-12T22:11:00.424Z,1.60
2022-08-12T22:14:08.260Z,1.92
2022-08-12T22:17:11.045Z,2.08
2022-08-12T22:20:17.079Z,2.50
2022-08-12T22:23:21.811Z,2.33
2022-08-12T22:26:37.476Z,2.47
2022-08-12T22:29:58.972Z,2.60
2022-08-12T22:33:08.027Z,2.50
2022-08-12T22:36:21.887Z,2.35
2022-08-12T22:39:28.714Z,2.40
2022-08-12T22:42:52.578Z,2.50
2022-08-12T22:46:13.327Z,2.40
2022-08-12T22:49:15.443Z,2.42
2022-08-12T22:52:23.058Z,1.90
2022-08-12T22:55:53.402Z,2.00
2022-08-12T22:58:48.082Z,1.98
2022-08-12T23:02:01.979Z,2.10
2022-08-12T23:05:08.681Z,2.05
2022-08-12T23:08:13.698Z,2.50
2022-08-12T23:11:23.502Z,2.65
2022-08-12T23:14:27.228Z,2.47
2022-08-12T23:17:41.226Z,2.67
2022-08-12T23:20:43.890Z,2.63
2022-08-12T23:24:09.760Z,2.85
2022-08-12T23:27:44.238Z,2.58
2022-08-12T23:30:51.919Z,2.80
2022-08-12T23:34:02.458Z,2.85
2022-08-12T23:37:06.860Z,3.15
2022-08-12T23:40:17.951Z,3.70
2022-08-12T23:43:20.413Z,3.35
2022-08-12T23:46:27.219Z,3.40
2022-08-12T23:49:57.959Z,3.55
2022-08-12T23:52:53.416Z,4.10
2022-08-12T23:55:56.986Z,3.63
2022-08-12T23:59:00.053Z,3.65
